Time;durP1;ratioP1;P1;durP2;ratioP2;P2;SDS_P1;SDS_P2;PMS_P1;PMS_P2;Temp;Humidity;BMP_temperature;BMP_pressure;BME280_temperature;BME280_humidity;BME280_pressure;Samples;Min_cycle;Max_cycle;Signal;HPM_P1;HPM_P2
2024/04/09 00:00:44;;;;;;;0.80;0.77;;;;;;;;;;5323426;26;20004;-82
2024/04/09 00:03:10;;;;;;;0.43;0.43;;;;;;;;;;5304719;26;20010;-81
2024/04/09 00:05:39;;;;;;;1.05;0.70;;;;;;;;;;5336818;26;20366;-80
2024/04/09 00:08:10;;;;;;;0.98;0.90;;;;;;;;;;5343839;26;20009;-80
2024/04/09 00:10:37;;;;;;;3.05;1.98;;;;;;;;;;5335602;26;20005;-80
2024/04/09 00:13:06;;;;;;;2.42;2.22;;;;;;;;;;5330683;26;20009;-81
2024/04/09 00:15:33;;;;;;;0.57;0.50;;;;;;;;;;5329526;26;20079;-81
2024/04/09 00:18:12;;;;;;;4.05;1.80;;;;;;;;;;5331836;26;20015;-82
2024/04/09 00:20:39;;;;;;;0.70;0.70;;;;;;;;;;5336412;26;20040;-81
2024/04/09 00:23:05;;;;;;;0.28;0.28;;;;;;;;;;5305958;26;20032;-77
2024/04/09 00:25:40;;;;;;;1.25;0.85;;;;;;;;;;5330148;26;20015;-77
2024/04/09 00:28:06;;;;;;;0.32;0.30;;;;;;;;;;5332233;26;20037;-77
2024/04/09 00:30:32;;;;;;;2.20;2.00;;;;;;;;;;5333509;26;20005;-76
2024/04/09 00:33:00;;;;;;;0.93;0.85;;;;;;;;;;5324793;26;20028;-76
2024/04/09 00:35:26;;;;;;;1.15;1.05;;;;;;;;;;5331380;26;20017;-76
2024/04/09 00:37:52;;;;;;;1.48;1.17;;;;;;;;;;5334828;26;20023;-77
2024/04/09 00:40:29;;;;;;;1.42;1.33;;;;;;;;;;5329499;26;20013;-78
2024/04/09 00:42:57;;;;;;;0.80;0.63;;;;;;;;;;5340155;26;20651;-77
2024/04/09 00:45:23;;;;;;;1.48;0.80;;;;;;;;;;5296470;26;20325;-78
2024/04/09 00:47:50;;;;;;;2.90;2.30;;;;;;;;;;5333551;26;20472;-76
2024/04/09 00:50:16;;;;;;;1.13;0.68;;;;;;;;;;5293715;26;20429;-78
2024/04/09 00:52:43;;;;;;;1.70;1.00;;;;;;;;;;5325989;26;20526;-77
2024/04/09 00:55:11;;;;;;;2.08;1.98;;;;;;;;;;5331588;26;20008;-77
2024/04/09 00:57:39;;;;;;;2.05;1.77;;;;;;;;;;5346995;26;20100;-76
2024/04/09 01:00:06;;;;;;;4.03;1.65;;;;;;;;;;5346981;26;20012;-77
2024/04/09 01:02:32;;;;;;;2.97;2.22;;;;;;;;;;5330672;26;20015;-76
2024/04/09 01:04:58;;;;;;;1.20;1.10;;;;;;;;;;5325165;26;20095;-77
2024/04/09 01:07:23;;;;;;;2.33;1.80;;;;;;;;;;5324508;26;20395;-78
2024/04/09 01:09:49;;;;;;;3.25;2.85;;;;;;;;;;5331277;26;19997;-78
2024/04/09 01:12:15;;;;;;;1.48;1.30;;;;;;;;;;5327488;26;20441;-77
2024/04/09 01:14:40;;;;;;;2.45;2.25;;;;;;;;;;5336238;26;20016;-77
2024/04/09 01:17:06;;;;;;;1.02;0.95;;;;;;;;;;5301195;26;20051;-77
2024/04/09 01:19:32;;;;;;;1.63;1.17;;;;;;;;;;5332308;26;19997;-78
2024/04/09 01:21:57;;;;;;;1.05;0.95;;;;;;;;;;5339167;26;20361;-78
2024/04/09 01:24:24;;;;;;;1.90;1.75;;;;;;;;;;5310331;26;20000;-76
2024/04/09 01:26:51;;;;;;;1.33;1.23;;;;;;;;;;5338785;26;20001;-77
2024/04/09 01:29:17;;;;;;;4.35;2.50;;;;;;;;;;5292817;26;20001;-77
2024/04/09 01:31:43;;;;;;;3.00;2.10;;;;;;;;;;5330436;26;20029;-76
2024/04/09 01:34:12;;;;;;;5.18;2.33;;;;;;;;;;5337183;26;19997;-76
2024/04/09 01:36:37;;;;;;;2.08;1.75;;;;;;;;;;5338422;26;20001;-76
2024/04/09 01:39:08;;;;;;;2.38;1.95;;;;;;;;;;5341850;26;20005;-76
2024/04/09 01:41:36;;;;;;;0.85;0.80;;;;;;;;;;5345231;26;20456;-78
2024/04/09 01:44:02;;;;;;;0.60;0.57;;;;;;;;;;5337391;26;20005;-77
2024/04/09 01:46:27;;;;;;;0.93;0.90;;;;;;;;;;5333476;26;20001;-77
2024/04/09 01:48:53;;;;;;;2.38;1.65;;;;;;;;;;5333592;26;20329;-78
2024/04/09 01:51:19;;;;;;;2.33;1.95;;;;;;;;;;5336215;26;20012;-77
2024/04/09 01:53:48;;;;;;;3.67;1.13;;;;;;;;;;5333622;26;20004;-77
2024/04/09 01:56:15;;;;;;;1.90;1.77;;;;;;;;;;5338174;26;20013;-77
2024/04/09 01:58:40;;;;;;;1.70;1.50;;;;;;;;;;5332557;26;20066;-77
2024/04/09 02:01:09;;;;;;;2.50;1.75;;;;;;;;;;5325242;26;20009;-79
2024/04/09 02:03:35;;;;;;;2.15;1.92;;;;;;;;;;5305514;26;20001;-77
2024/04/09 02:06:02;;;;;;;2.08;1.50;;;;;;;;;;5330486;26;20079;-76
2024/04/09 02:08:27;;;;;;;1.60;1.50;;;;;;;;;;5326382;26;19993;-77
2024/04/09 02:10:54;;;;;;;2.05;1.42;;;;;;;;;;5327328;26;20015;-77
2024/04/09 02:13:19;;;;;;;3.85;2.70;;;;;;;;;;5297539;26;20534;-77
2024/04/09 02:15:45;;;;;;;3.75;2.53;;;;;;;;;;5293119;26;20009;-77
2024/04/09 02:18:12;;;;;;;2.03;1.83;;;;;;;;;;5297652;26;20002;-77
2024/04/09 02:20:38;;;;;;;2.97;2.30;;;;;;;;;;5296208;26;20005;-77
2024/04/09 02:23:04;;;;;;;0.90;0.82;;;;;;;;;;5291990;26;20029;-78
2024/04/09 02:25:30;;;;;;;2.65;2.45;;;;;;;;;;5263907;27;20005;-76
2024/04/09 02:27:56;;;;;;;1.70;1.60;;;;;;;;;;5295990;26;20005;-77
2024/04/09 02:30:21;;;;;;;1.77;1.67;;;;;;;;;;5298336;26;20510;-77
2024/04/09 02:32:47;;;;;;;2.83;2.50;;;;;;;;;;5290686;26;20031;-77
2024/04/09 02:35:13;;;;;;;3.50;1.95;;;;;;;;;;5292720;26;20323;-78
2024/04/09 02:37:41;;;;;;;1.55;1.40;;;;;;;;;;5289786;26;19999;-76
2024/04/09 02:40:14;;;;;;;1.75;1.58;;;;;;;;;;5264788;27;20369;-79
2024/04/09 02:42:41;;;;;;;3.10;2.83;;;;;;;;;;5262127;27;20001;-78
2024/04/09 02:45:09;;;;;;;1.85;1.60;;;;;;;;;;5296483;26;20042;-79
2024/04/09 02:47:35;;;;;;;8.48;3.03;;;;;;;;;;5296732;26;20041;-79
2024/04/09 02:50:02;;;;;;;6.32;2.83;;;;;;;;;;5285216;26;20005;-78
2024/04/09 02:52:27;;;;;;;2.78;2.35;;;;;;;;;;5293531;26;20016;-76
2024/04/09 02:54:53;;;;;;;3.15;2.85;;;;;;;;;;5296785;26;20013;-77
2024/04/09 02:57:19;;;;;;;2.13;1.95;;;;;;;;;;5297817;26;20002;-80
2024/04/09 02:59:45;;;;;;;6.75;3.17;;;;;;;;;;5298434;26;20017;-79
2024/04/09 03:02:10;;;;;;;5.45;3.10;;;;;;;;;;5293128;26;20012;-79
2024/04/09 03:04:36;;;;;;;2.30;2.17;;;;;;;;;;5293432;26;20009;-78
2024/04/09 03:07:03;;;;;;;3.55;2.00;;;;;;;;;;5289895;26;20013;-79
2024/04/09 03:09:30;;;;;;;2.25;2.15;;;;;;;;;;5297865;26;20426;-79
2024/04/09 03:11:56;;;;;;;2.78;2.15;;;;;;;;;;5293500;26;20446;-79
2024/04/09 03:14:22;;;;;;;2.17;1.92;;;;;;;;;;5298501;26;20076;-78
2024/04/09 03:16:48;;;;;;;3.38;3.10;;;;;;;;;;5259271;27;20024;-79
2024/04/09 03:19:13;;;;;;;3.63;2.67;;;;;;;;;;5302412;26;20021;-79
2024/04/09 03:21:39;;;;;;;8.00;4.32;;;;;;;;;;5335891;26;20005;-80
2024/04/09 03:24:05;;;;;;;1.67;1.58;;;;;;;;;;5294815;26;20484;-77
2024/04/09 03:26:30;;;;;;;12.20;3.72;;;;;;;;;;5292453;26;20454;-78
2024/04/09 03:28:56;;;;;;;2.10;1.90;;;;;;;;;;5298009;26;20020;-78
2024/04/09 03:31:22;;;;;;;3.35;3.03;;;;;;;;;;5304627;26;20459;-78
2024/04/09 03:33:48;;;;;;;10.43;3.42;;;;;;;;;;5344446;26;20878;-77
2024/04/09 03:36:14;;;;;;;4.18;3.65;;;;;;;;;;5302216;26;21135;-77
2024/04/09 03:38:40;;;;;;;3.53;3.22;;;;;;;;;;5306256;26;19997;-77
2024/04/09 03:41:06;;;;;;;8.32;3.08;;;;;;;;;;5332588;26;20005;-77
2024/04/09 03:43:32;;;;;;;4.07;2.85;;;;;;;;;;5336163;26;20013;-77
2024/04/09 03:46:00;;;;;;;2.10;1.90;;;;;;;;;;5336846;26;20328;-76
2024/04/09 03:48:25;;;;;;;10.43;3.35;;;;;;;;;;5351532;26;20441;-76
2024/04/09 03:50:51;;;;;;;3.00;2.70;;;;;;;;;;5324465;26;20384;-76
2024/04/09 03:53:16;;;;;;;4.13;3.83;;;;;;;;;;5331020;26;22349;-76
2024/04/09 03:55:52;;;;;;;5.90;1.77;;;;;;;;;;5329299;26;20047;-78
2024/04/09 03:58:17;;;;;;;12.05;4.47;;;;;;;;;;5333414;26;20395;-76
2024/04/09 04:00:53;;;;;;;4.88;4.45;;;;;;;;;;5346161;26;20016;-78
2024/04/09 04:03:19;;;;;;;2.42;2.22;;;;;;;;;;5343072;26;20440;-77
2024/04/09 04:05:49;;;;;;;3.08;2.33;;;;;;;;;;5333764;26;20081;-78
2024/04/09 04:08:15;;;;;;;2.85;2.60;;;;;;;;;;5342901;26;20005;-78
2024/04/09 04:10:41;;;;;;;7.95;4.72;;;;;;;;;;5342720;26;20766;-78
2024/04/09 04:13:08;;;;;;;3.35;3.08;;;;;;;;;;5335833;26;20000;-78
2024/04/09 04:15:34;;;;;;;2.72;2.35;;;;;;;;;;5339100;26;20023;-77
2024/04/09 04:18:00;;;;;;;3.20;2.97;;;;;;;;;;5306890;26;20004;-76
2024/04/09 04:20:25;;;;;;;8.82;2.70;;;;;;;;;;5335644;26;20005;-76
2024/04/09 04:22:51;;;;;;;3.88;3.50;;;;;;;;;;5337201;26;20799;-75
2024/04/09 04:25:17;;;;;;;1.30;1.20;;;;;;;;;;5332752;26;20968;-76
2024/04/09 04:27:44;;;;;;;2.95;2.00;;;;;;;;;;5339437;26;20001;-76
2024/04/09 04:30:09;;;;;;;5.55;3.25;;;;;;;;;;5306961;26;20102;-76
2024/04/09 04:32:35;;;;;;;4.25;3.60;;;;;;;;;;5334705;26;20344;-77
2024/04/09 04:35:01;;;;;;;3.67;3.30;;;;;;;;;;5326562;26;20005;-78
2024/04/09 04:37:27;;;;;;;1.55;1.45;;;;;;;;;;5347340;26;20012;-76
2024/04/09 04:39:53;;;;;;;2.70;2.28;;;;;;;;;;5350667;26;20007;-77
2024/04/09 04:42:18;;;;;;;2.63;2.33;;;;;;;;;;5348784;26;20006;-76
2024/04/09 04:44:44;;;;;;;6.35;2.30;;;;;;;;;;5336619;26;20009;-80
2024/04/09 04:47:10;;;;;;;3.53;2.38;;;;;;;;;;5331241;26;20439;-78
2024/04/09 04:49:36;;;;;;;15.93;4.38;;;;;;;;;;5330110;26;20081;-78
2024/04/09 04:52:04;;;;;;;2.10;1.73;;;;;;;;;;5301980;26;20411;-78
2024/04/09 04:54:29;;;;;;;4.32;3.15;;;;;;;;;;5332665;26;20321;-80
2024/04/09 04:56:55;;;;;;;4.00;3.45;;;;;;;;;;5341463;26;19996;-79
2024/04/09 04:59:21;;;;;;;10.77;2.45;;;;;;;;;;5343656;26;19996;-78
2024/04/09 05:01:46;;;;;;;2.38;1.80;;;;;;;;;;5331715;26;19997;-78
2024/04/09 05:04:12;;;;;;;2.10;2.00;;;;;;;;;;5327836;26;20455;-78
2024/04/09 05:06:38;;;;;;;4.63;4.28;;;;;;;;;;5331289;26;20093;-77
2024/04/09 05:09:07;;;;;;;2.35;2.00;;;;;;;;;;5329520;26;20446;-86
2024/04/09 05:11:32;;;;;;;2.08;1.88;;;;;;;;;;5339602;26;20012;-88
2024/04/09 05:13:58;;;;;;;2.88;2.35;;;;;;;;;;5359047;26;19988;-86
2024/04/09 05:16:24;;;;;;;6.40;3.42;;;;;;;;;;5317348;26;20002;-85
2024/04/09 05:18:51;;;;;;;7.40;4.93;;;;;;;;;;5276239;26;20088;-87
2024/04/09 05:21:17;;;;;;;2.13;1.92;;;;;;;;;;5305852;26;20002;-89
2024/04/09 05:23:43;;;;;;;3.17;2.67;;;;;;;;;;5293179;27;20135;-78
2024/04/09 05:26:09;;;;;;;3.80;3.25;;;;;;;;;;5287089;26;19997;-77
2024/04/09 05:28:34;;;;;;;6.03;3.75;;;;;;;;;;5285690;26;20002;-84
2024/04/09 05:31:01;;;;;;;16.25;4.95;;;;;;;;;;5296889;26;20002;-89
2024/04/09 05:33:27;;;;;;;2.63;2.42;;;;;;;;;;5288880;26;20790;-77
2024/04/09 05:35:52;;;;;;;3.58;3.10;;;;;;;;;;5298680;26;19993;-75
2024/04/09 05:38:18;;;;;;;5.43;3.55;;;;;;;;;;5302124;26;20001;-76
2024/04/09 05:40:44;;;;;;;2.15;1.30;;;;;;;;;;5288574;26;21104;-77
2024/04/09 05:43:09;;;;;;;9.90;3.60;;;;;;;;;;5294519;27;20005;-76
2024/04/09 05:45:35;;;;;;;3.00;2.55;;;;;;;;;;5298189;26;20017;-76
2024/04/09 05:48:01;;;;;;;1.85;1.50;;;;;;;;;;5294627;26;20622;-75
2024/04/09 05:50:28;;;;;;;2.28;2.08;;;;;;;;;;5298911;26;19997;-78
2024/04/09 05:52:54;;;;;;;3.28;2.97;;;;;;;;;;5265150;27;20419;-76
2024/04/09 05:55:20;;;;;;;1.33;1.23;;;;;;;;;;5299226;26;19994;-76
2024/04/09 05:57:45;;;;;;;1.38;1.17;;;;;;;;;;5292790;26;20692;-76
2024/04/09 06:00:19;;;;;;;4.10;3.28;;;;;;;;;;5262948;27;19998;-76
2024/04/09 06:02:47;;;;;;;;;;;;;;;;;;5283461;26;20003;-76
2024/04/09 06:05:15;;;;;;;2.70;1.85;;;;;;;;;;5290078;26;19942;-77
2024/04/09 06:07:41;;;;;;;1.55;1.45;;;;;;;;;;5312248;26;20004;-77
2024/04/09 06:10:07;;;;;;;1.02;0.93;;;;;;;;;;5292295;26;20452;-77
2024/04/09 06:12:33;;;;;;;2.33;2.13;;;;;;;;;;5296800;26;20722;-76
2024/04/09 06:14:58;;;;;;;0.98;0.90;;;;;;;;;;5295155;26;20009;-76
2024/04/09 06:17:24;;;;;;;0.75;0.70;;;;;;;;;;5293992;26;20325;-77
2024/04/09 06:19:52;;;;;;;4.05;2.05;;;;;;;;;;5316033;26;20447;-76
2024/04/09 06:22:18;;;;;;;1.17;1.08;;;;;;;;;;5346567;26;20005;-76
2024/04/09 06:24:46;;;;;;;1.40;1.20;;;;;;;;;;5340718;26;20349;-76
2024/04/09 06:27:11;;;;;;;0.88;0.77;;;;;;;;;;5304059;26;20074;-77
2024/04/09 06:29:37;;;;;;;1.27;1.10;;;;;;;;;;5346517;26;20328;-76
2024/04/09 06:32:04;;;;;;;0.98;0.88;;;;;;;;;;5333928;26;20015;-77
2024/04/09 06:34:30;;;;;;;6.30;2.45;;;;;;;;;;5341838;26;20059;-76
2024/04/09 06:36:55;;;;;;;3.30;2.88;;;;;;;;;;5318178;26;20000;-76
2024/04/09 06:39:21;;;;;;;0.73;0.68;;;;;;;;;;5346093;26;19997;-76
2024/04/09 06:41:47;;;;;;;1.65;1.45;;;;;;;;;;5339065;26;19997;-76
2024/04/09 06:44:14;;;;;;;2.25;1.42;;;;;;;;;;5346209;26;20015;-76
2024/04/09 06:46:40;;;;;;;1.20;1.10;;;;;;;;;;5335695;26;20005;-77
2024/04/09 06:49:06;;;;;;;1.13;0.65;;;;;;;;;;5347238;26;20436;-76
2024/04/09 06:51:31;;;;;;;3.45;0.75;;;;;;;;;;5335733;26;20008;-75
2024/04/09 06:53:57;;;;;;;1.45;1.20;;;;;;;;;;5332944;26;20002;-75
2024/04/09 06:56:23;;;;;;;2.30;2.15;;;;;;;;;;5348496;26;20008;-74
2024/04/09 06:58:50;;;;;;;2.88;2.58;;;;;;;;;;5346467;26;20442;-76
2024/04/09 07:01:16;;;;;;;1.98;1.58;;;;;;;;;;5335205;26;20514;-76
2024/04/09 07:03:41;;;;;;;1.63;1.50;;;;;;;;;;5345532;26;20000;-76
2024/04/09 07:06:07;;;;;;;0.85;0.75;;;;;;;;;;5344901;26;20293;-75
2024/04/09 07:08:33;;;;;;;1.17;1.02;;;;;;;;;;5336188;26;20004;-76
2024/04/09 07:10:59;;;;;;;1.75;0.60;;;;;;;;;;5347574;26;20004;-76
2024/04/09 07:13:24;;;;;;;1.15;1.05;;;;;;;;;;5340185;26;20417;-76
2024/04/09 07:15:50;;;;;;;0.52;0.52;;;;;;;;;;5343670;26;20328;-75
2024/04/09 07:18:16;;;;;;;1.77;1.10;;;;;;;;;;5340903;26;19997;-77
2024/04/09 07:20:42;;;;;;;2.60;1.25;;;;;;;;;;5344504;26;19998;-75
2024/04/09 07:23:07;;;;;;;0.52;0.40;;;;;;;;;;5335551;26;20001;-75
2024/04/09 07:25:33;;;;;;;0.82;0.60;;;;;;;;;;5340813;26;20400;-76
2024/04/09 07:27:59;;;;;;;0.35;0.35;;;;;;;;;;5331403;26;19997;-76
2024/04/09 07:30:24;;;;;;;0.70;0.50;;;;;;;;;;5336638;26;20002;-77
2024/04/09 07:32:50;;;;;;;0.77;0.65;;;;;;;;;;5337454;26;20020;-76
2024/04/09 07:35:17;;;;;;;1.45;1.00;;;;;;;;;;5341395;26;20134;-76
2024/04/09 07:37:42;;;;;;;12.40;1.33;;;;;;;;;;5364769;26;19992;-77
2024/04/09 07:40:08;;;;;;;2.00;1.08;;;;;;;;;;5345982;26;20009;-75
2024/04/09 07:42:34;;;;;;;0.40;0.40;;;;;;;;;;5338228;26;20005;-77
2024/04/09 07:44:59;;;;;;;0.25;0.25;;;;;;;;;;5349996;26;20008;-75
2024/04/09 07:47:25;;;;;;;0.30;0.30;;;;;;;;;;5342730;26;20001;-77
2024/04/09 07:49:53;;;;;;;0.70;0.50;;;;;;;;;;5311594;26;20436;-77
2024/04/09 07:52:18;;;;;;;0.75;0.75;;;;;;;;;;5343943;26;19997;-79
2024/04/09 07:54:44;;;;;;;9.20;0.63;;;;;;;;;;5344529;26;19988;-77
2024/04/09 07:57:14;;;;;;;0.50;0.50;;;;;;;;;;5345365;26;20000;-79
2024/04/09 07:59:40;;;;;;;1.42;1.33;;;;;;;;;;5336441;26;20012;-76
2024/04/09 08:02:05;;;;;;;10.73;1.05;;;;;;;;;;5336157;26;20078;-76
2024/04/09 08:04:32;;;;;;;0.38;0.38;;;;;;;;;;5346457;26;19992;-76
2024/04/09 08:06:58;;;;;;;0.40;0.30;;;;;;;;;;5339624;26;20087;-75
2024/04/09 08:09:23;;;;;;;0.20;0.20;;;;;;;;;;5321899;26;19996;-76
2024/04/09 08:11:49;;;;;;;0.85;0.63;;;;;;;;;;5343297;26;20009;-76
2024/04/09 08:14:15;;;;;;;0.63;0.50;;;;;;;;;;5335737;26;20117;-75
2024/04/09 08:16:41;;;;;;;1.08;0.32;;;;;;;;;;5331003;26;20626;-77
2024/04/09 08:19:07;;;;;;;0.47;0.47;;;;;;;;;;5347214;26;20029;-76
2024/04/09 08:21:33;;;;;;;1.52;0.88;;;;;;;;;;5349543;26;19996;-76
2024/04/09 08:23:58;;;;;;;0.55;0.45;;;;;;;;;;5347712;26;20012;-74
2024/04/09 08:26:24;;;;;;;0.20;0.20;;;;;;;;;;5313160;26;19997;-77
2024/04/09 08:28:52;;;;;;;0.60;0.60;;;;;;;;;;5354948;26;20024;-76
2024/04/09 08:31:27;;;;;;;0.93;0.85;;;;;;;;;;5330559;26;20039;-76
2024/04/09 08:33:53;;;;;;;0.20;0.20;;;;;;;;;;5337287;26;20004;-76
2024/04/09 08:36:19;;;;;;;0.35;0.35;;;;;;;;;;5350103;26;19993;-76
2024/04/09 08:38:44;;;;;;;1.77;1.65;;;;;;;;;;5342964;26;19993;-76
2024/04/09 08:41:10;;;;;;;0.52;0.50;;;;;;;;;;5343009;26;19992;-76
2024/04/09 08:43:36;;;;;;;1.23;0.47;;;;;;;;;;5316489;26;20041;-76
2024/04/09 08:46:03;;;;;;;0.47;0.30;;;;;;;;;;5333331;26;19993;-76
2024/04/09 08:48:30;;;;;;;0.30;0.30;;;;;;;;;;5333159;26;20001;-76
2024/04/09 08:50:57;;;;;;;0.63;0.57;;;;;;;;;;5327533;26;20075;-76
2024/04/09 08:53:23;;;;;;;0.65;0.55;;;;;;;;;;5345584;26;20008;-76
2024/04/09 08:55:53;;;;;;;0.30;0.30;;;;;;;;;;5327723;26;20011;-77
2024/04/09 08:58:18;;;;;;;0.90;0.70;;;;;;;;;;5338608;26;20151;-76
2024/04/09 09:00:44;;;;;;;2.33;1.60;;;;;;;;;;5330253;26;20016;-76
2024/04/09 09:03:10;;;;;;;2.20;1.33;;;;;;;;;;5343189;26;19989;-76
2024/04/09 09:05:38;;;;;;;0.95;0.60;;;;;;;;;;5331464;26;20001;-76
2024/04/09 09:08:05;;;;;;;0.35;0.35;;;;;;;;;;5335325;26;20132;-76
2024/04/09 09:10:31;;;;;;;0.52;0.52;;;;;;;;;;5312536;26;20294;-76
2024/04/09 09:13:02;;;;;;;0.47;0.47;;;;;;;;;;5346805;26;20367;-77
2024/04/09 09:15:28;;;;;;;1.17;0.82;;;;;;;;;;5334271;26;20000;-75
2024/04/09 09:17:55;;;;;;;0.32;0.25;;;;;;;;;;5341642;26;20001;-76
2024/04/09 09:20:22;;;;;;;0.50;0.50;;;;;;;;;;5305437;26;20001;-76
2024/04/09 09:22:48;;;;;;;0.45;0.45;;;;;;;;;;5301770;26;20029;-78
2024/04/09 09:25:15;;;;;;;1.50;1.35;;;;;;;;;;5341481;26;20015;-76
2024/04/09 09:27:41;;;;;;;1.27;1.17;;;;;;;;;;5342597;26;20010;-77
2024/04/09 09:30:08;;;;;;;15.35;1.65;;;;;;;;;;5334350;26;20005;-76
2024/04/09 09:32:36;;;;;;;0.57;0.57;;;;;;;;;;5337677;26;20012;-77
2024/04/09 09:35:03;;;;;;;1.17;0.65;;;;;;;;;;5332517;26;20005;-76
2024/04/09 09:37:31;;;;;;;2.15;0.80;;;;;;;;;;5346740;26;20016;-76
2024/04/09 09:39:56;;;;;;;0.40;0.40;;;;;;;;;;5336641;26;20005;-76
2024/04/09 09:42:23;;;;;;;0.30;0.25;;;;;;;;;;5313242;26;19997;-77
2024/04/09 09:44:50;;;;;;;0.20;0.20;;;;;;;;;;5338440;26;20005;-76
2024/04/09 09:47:16;;;;;;;0.30;0.30;;;;;;;;;;5341859;26;20004;-77
2024/04/09 09:49:43;;;;;;;0.82;0.82;;;;;;;;;;5309073;26;20012;-75
2024/04/09 09:52:09;;;;;;;0.22;0.20;;;;;;;;;;5296321;26;20015;-77
2024/04/09 09:54:34;;;;;;;0.20;0.20;;;;;;;;;;5334545;26;20797;-75
2024/04/09 09:57:12;;;;;;;0.70;0.70;;;;;;;;;;5333869;26;20008;-77
2024/04/09 09:59:54;;;;;;;0.75;0.70;;;;;;;;;;5328338;26;20017;-76
2024/04/09 10:02:21;;;;;;;0.30;0.30;;;;;;;;;;5308875;26;20015;-77
2024/04/09 10:04:47;;;;;;;1.10;1.10;;;;;;;;;;5336447;26;20016;-77
2024/04/09 10:07:13;;;;;;;0.20;0.20;;;;;;;;;;5331570;26;20445;-77
2024/04/09 10:09:46;;;;;;;0.52;0.40;;;;;;;;;;5335611;26;20049;-76
2024/04/09 10:12:21;;;;;;;0.20;0.20;;;;;;;;;;5357635;26;20001;-76
2024/04/09 10:14:57;;;;;;;0.35;0.35;;;;;;;;;;5338413;26;20357;-76
2024/04/09 10:17:27;;;;;;;0.43;0.40;;;;;;;;;;5350946;26;20009;-76
2024/04/09 10:19:53;;;;;;;0.85;0.68;;;;;;;;;;5340607;26;20014;-76
2024/04/09 10:22:18;;;;;;;3.50;1.67;;;;;;;;;;5344587;26;20412;-76
2024/04/09 10:24:44;;;;;;;0.43;0.40;;;;;;;;;;5301559;26;20043;-77
2024/04/09 10:27:11;;;;;;;0.38;0.35;;;;;;;;;;5337376;26;20012;-78
2024/04/09 10:29:37;;;;;;;0.20;0.20;;;;;;;;;;5343236;26;20435;-78
2024/04/09 10:32:12;;;;;;;0.50;0.50;;;;;;;;;;5353311;26;19996;-76
2024/04/09 10:34:37;;;;;;;4.07;1.27;;;;;;;;;;5353343;26;20086;-76
2024/04/09 10:37:04;;;;;;;0.10;0.10;;;;;;;;;;5334034;26;20004;-78
2024/04/09 10:39:32;;;;;;;6.03;0.60;;;;;;;;;;5336867;26;20073;-76
2024/04/09 10:41:57;;;;;;;0.63;0.63;;;;;;;;;;5335929;26;20001;-77
2024/04/09 10:44:27;;;;;;;0.70;0.65;;;;;;;;;;5295188;26;20008;-76
2024/04/09 10:46:52;;;;;;;1.35;1.23;;;;;;;;;;5350307;26;20036;-77
2024/04/09 10:49:18;;;;;;;0.10;0.10;;;;;;;;;;5335873;26;20005;-76
2024/04/09 10:51:48;;;;;;;0.60;0.55;;;;;;;;;;5328246;26;20001;-77
2024/04/09 10:54:13;;;;;;;0.68;0.68;;;;;;;;;;5309512;26;20037;-76
2024/04/09 10:56:39;;;;;;;0.10;0.10;;;;;;;;;;5334579;26;20392;-76
2024/04/09 10:59:21;;;;;;;2.08;1.13;;;;;;;;;;5339969;26;20136;-76
2024/04/09 11:01:47;;;;;;;0.20;0.20;;;;;;;;;;5350472;26;20000;-77
2024/04/09 11:04:13;;;;;;;0.20;0.20;;;;;;;;;;5340597;26;20391;-77
2024/04/09 11:06:42;;;;;;;0.20;0.20;;;;;;;;;;5341642;26;20037;-76
2024/04/09 11:09:08;;;;;;;5.90;1.30;;;;;;;;;;5335123;26;20001;-78
2024/04/09 11:11:40;;;;;;;0.20;0.20;;;;;;;;;;5307431;26;20007;-76
2024/04/09 11:14:06;;;;;;;0.30;0.30;;;;;;;;;;5306862;26;20013;-77
2024/04/09 11:16:31;;;;;;;0.20;0.20;;;;;;;;;;5341209;26;20099;-75
2024/04/09 11:19:00;;;;;;;0.43;0.35;;;;;;;;;;5341488;26;20958;-77
2024/04/09 11:21:30;;;;;;;0.22;0.22;;;;;;;;;;5318992;26;20337;-75
2024/04/09 11:23:56;;;;;;;3.15;1.90;;;;;;;;;;5344159;26;20011;-76
2024/04/09 11:26:22;;;;;;;0.32;0.25;;;;;;;;;;5335436;26;20001;-76
2024/04/09 11:28:50;;;;;;;0.17;0.15;;;;;;;;;;5333216;26;20015;-75
2024/04/09 11:31:20;;;;;;;1.27;1.17;;;;;;;;;;5337882;26;20005;-77
2024/04/09 11:33:45;;;;;;;0.88;0.82;;;;;;;;;;5348132;26;20023;-76
2024/04/09 11:36:11;;;;;;;0.20;0.20;;;;;;;;;;5334988;26;19993;-76
2024/04/09 11:38:37;;;;;;;0.73;0.60;;;;;;;;;;5337145;26;20009;-76
2024/04/09 11:41:03;;;;;;;1.30;1.17;;;;;;;;;;5326197;26;19997;-74
2024/04/09 11:43:30;;;;;;;0.20;0.20;;;;;;;;;;5329682;26;20715;-77
2024/04/09 11:45:59;;;;;;;8.05;2.00;;;;;;;;;;5337567;26;20008;-78
2024/04/09 11:48:24;;;;;;;0.43;0.35;;;;;;;;;;5337624;26;20343;-76
2024/04/09 11:50:50;;;;;;;0.57;0.57;;;;;;;;;;5335350;26;19992;-78
2024/04/09 11:53:16;;;;;;;0.40;0.30;;;;;;;;;;5298483;26;20017;-75
2024/04/09 11:55:42;;;;;;;0.50;0.50;;;;;;;;;;5319580;26;20020;-76
2024/04/09 11:58:08;;;;;;;0.77;0.77;;;;;;;;;;5346489;26;20008;-76
2024/04/09 12:00:34;;;;;;;0.50;0.50;;;;;;;;;;5347041;26;20455;-77
2024/04/09 12:02:59;;;;;;;0.47;0.45;;;;;;;;;;5344831;26;20010;-76
2024/04/09 12:05:25;;;;;;;0.43;0.40;;;;;;;;;;5312260;26;19996;-75
2024/04/09 12:07:51;;;;;;;0.65;0.50;;;;;;;;;;5327754;26;20958;-77
2024/04/09 12:10:17;;;;;;;0.20;0.20;;;;;;;;;;5330277;26;20327;-76
2024/04/09 12:12:42;;;;;;;0.75;0.55;;;;;;;;;;5333244;26;20016;-76
2024/04/09 12:15:08;;;;;;;0.43;0.43;;;;;;;;;;5338822;26;20016;-74
2024/04/09 12:17:34;;;;;;;0.80;0.68;;;;;;;;;;5320511;26;20002;-76
2024/04/09 12:20:00;;;;;;;0.50;0.50;;;;;;;;;;5280180;26;20002;-76
2024/04/09 12:22:26;;;;;;;0.20;0.20;;;;;;;;;;5294167;26;20369;-76
2024/04/09 12:24:51;;;;;;;0.20;0.20;;;;;;;;;;5300418;26;20017;-76
2024/04/09 12:27:17;;;;;;;0.35;0.35;;;;;;;;;;5292809;26;20749;-76
2024/04/09 12:29:43;;;;;;;0.20;0.20;;;;;;;;;;5300153;26;20005;-74
2024/04/09 12:32:10;;;;;;;0.45;0.30;;;;;;;;;;5313179;26;20890;-74
2024/04/09 12:34:36;;;;;;;0.35;0.35;;;;;;;;;;5302653;26;20549;-75
2024/04/09 12:37:02;;;;;;;0.30;0.30;;;;;;;;;;5310691;26;20740;-75
2024/04/09 12:39:30;;;;;;;0.40;0.40;;;;;;;;;;5306235;26;20008;-75
2024/04/09 12:41:56;;;;;;;1.42;1.33;;;;;;;;;;5273958;26;20077;-76
2024/04/09 12:44:21;;;;;;;0.35;0.35;;;;;;;;;;5294637;26;20005;-74
2024/04/09 12:46:47;;;;;;;0.45;0.20;;;;;;;;;;5308310;26;20001;-76
2024/04/09 12:49:16;;;;;;;0.43;0.35;;;;;;;;;;5317141;26;20015;-77
2024/04/09 12:51:42;;;;;;;0.90;0.68;;;;;;;;;;5295513;26;20007;-76
2024/04/09 12:54:09;;;;;;;0.20;0.20;;;;;;;;;;5266163;26;20006;-77
2024/04/09 12:56:35;;;;;;;0.70;0.70;;;;;;;;;;5301999;26;19998;-76
2024/04/09 12:59:01;;;;;;;0.22;0.20;;;;;;;;;;5300144;26;20016;-74
2024/04/09 13:01:26;;;;;;;0.30;0.30;;;;;;;;;;5289116;26;19998;-76
2024/04/09 13:03:52;;;;;;;1.00;1.00;;;;;;;;;;5277180;27;20054;-77
2024/04/09 13:06:18;;;;;;;0.30;0.30;;;;;;;;;;5290531;26;20002;-77
2024/04/09 13:08:44;;;;;;;0.30;0.30;;;;;;;;;;5299906;26;20005;-75
2024/04/09 13:11:09;;;;;;;0.20;0.20;;;;;;;;;;5328265;26;20286;-77
2024/04/09 13:13:35;;;;;;;0.40;0.30;;;;;;;;;;5299237;26;20061;-75
2024/04/09 13:16:01;;;;;;;0.63;0.30;;;;;;;;;;5301316;26;20857;-76
2024/04/09 13:18:27;;;;;;;0.70;0.57;;;;;;;;;;5334547;26;20000;-76
2024/04/09 13:20:52;;;;;;;0.28;0.28;;;;;;;;;;5337404;26;20524;-76
2024/04/09 13:23:18;;;;;;;0.13;0.13;;;;;;;;;;5348268;26;20044;-75
2024/04/09 13:25:44;;;;;;;1.00;0.85;;;;;;;;;;5336813;26;19996;-75
2024/04/09 13:28:10;;;;;;;0.13;0.13;;;;;;;;;;5333235;26;20095;-76
2024/04/09 13:30:40;;;;;;;0.30;0.30;;;;;;;;;;5338545;26;19993;-73
2024/04/09 13:33:05;;;;;;;0.10;0.10;;;;;;;;;;5341243;26;20008;-76
2024/04/09 13:35:32;;;;;;;0.30;0.30;;;;;;;;;;5350905;26;19996;-77
2024/04/09 13:37:57;;;;;;;0.30;0.20;;;;;;;;;;5336248;26;20171;-75
2024/04/09 13:40:23;;;;;;;0.40;0.40;;;;;;;;;;5345488;26;19993;-76
2024/04/09 13:42:48;;;;;;;0.40;0.30;;;;;;;;;;5342066;26;19996;-77
2024/04/09 13:45:14;;;;;;;3.15;0.90;;;;;;;;;;5303784;26;20020;-78
2024/04/09 13:47:40;;;;;;;0.10;0.10;;;;;;;;;;5302613;26;20125;-76
2024/04/09 13:50:06;;;;;;;1.15;0.68;;;;;;;;;;5333001;26;20008;-76
2024/04/09 13:52:35;;;;;;;0.30;0.30;;;;;;;;;;5313922;26;20018;-76
2024/04/09 13:55:01;;;;;;;0.57;0.32;;;;;;;;;;5334071;26;20008;-76
2024/04/09 13:57:28;;;;;;;0.68;0.68;;;;;;;;;;5336137;26;20001;-76
2024/04/09 13:59:53;;;;;;;0.35;0.30;;;;;;;;;;5339300;26;19997;-77
2024/04/09 14:02:20;;;;;;;0.47;0.30;;;;;;;;;;5340301;26;19997;-76
2024/04/09 14:04:47;;;;;;;0.40;0.40;;;;;;;;;;5337463;26;20004;-75
2024/04/09 14:07:13;;;;;;;0.10;0.10;;;;;;;;;;5309242;26;20666;-76
2024/04/09 14:09:39;;;;;;;0.25;0.20;;;;;;;;;;5345070;26;19996;-76
2024/04/09 14:12:05;;;;;;;0.50;0.50;;;;;;;;;;5306562;26;20015;-75
2024/04/09 14:14:32;;;;;;;0.17;0.17;;;;;;;;;;5331800;26;19997;-75
2024/04/09 14:16:58;;;;;;;0.28;0.28;;;;;;;;;;5303334;26;20432;-75
2024/04/09 14:19:23;;;;;;;0.20;0.20;;;;;;;;;;5325160;26;20013;-75
2024/04/09 14:21:49;;;;;;;0.20;0.20;;;;;;;;;;5333065;26;19997;-76
2024/04/09 14:24:15;;;;;;;0.20;0.20;;;;;;;;;;5325478;26;20001;-77
2024/04/09 14:26:41;;;;;;;0.40;0.30;;;;;;;;;;5334002;26;20020;-76
2024/04/09 14:29:08;;;;;;;0.30;0.20;;;;;;;;;;5330024;26;20414;-76
2024/04/09 14:31:34;;;;;;;0.47;0.35;;;;;;;;;;5343444;26;20005;-76
2024/04/09 14:34:00;;;;;;;1.20;1.10;;;;;;;;;;5348182;26;20011;-75
2024/04/09 14:36:25;;;;;;;0.20;0.20;;;;;;;;;;5342707;26;20624;-77
2024/04/09 14:38:52;;;;;;;0.40;0.32;;;;;;;;;;5334462;26;19996;-76